Time;durP1;ratioP1;P1;durP2;ratioP2;P2;SDS_P1;SDS_P2;PMS_P1;PMS_P2;Temp;Humidity;BMP_temperature;BMP_pressure;BME280_temperature;BME280_humidity;BME280_pressure;Samples;Min_cycle;Max_cycle;Signal;HPM_P1;HPM_P2
2024/01/11 00:01:28;;;;;;;56.67;21.27;;;;;;;;;;5043337;28;20666;-75
2024/01/11 00:03:54;;;;;;;63.47;21.23;;;;;;;;;;5036586;28;20253;-75
2024/01/11 00:06:19;;;;;;;57.93;20.70;;;;;;;;;;5051599;28;20340;-75
2024/01/11 00:08:44;;;;;;;64.13;22.50;;;;;;;;;;5034988;28;20926;-75
2024/01/11 00:11:10;;;;;;;64.40;22.60;;;;;;;;;;5050841;28;20279;-75
2024/01/11 00:13:35;;;;;;;62.87;21.07;;;;;;;;;;5051080;28;20233;-74
2024/01/11 00:16:01;;;;;;;64.73;21.80;;;;;;;;;;5053024;28;20294;-75
2024/01/11 00:18:26;;;;;;;68.77;22.53;;;;;;;;;;5048068;28;20227;-74
2024/01/11 00:20:51;;;;;;;57.20;19.80;;;;;;;;;;5060472;28;20260;-74
2024/01/11 00:23:17;;;;;;;53.80;19.40;;;;;;;;;;5053268;28;20737;-75
2024/01/11 00:25:42;;;;;;;55.10;20.53;;;;;;;;;;5051864;28;20312;-75
2024/01/11 00:28:08;;;;;;;53.77;19.37;;;;;;;;;;5047626;28;20650;-75
2024/01/11 00:30:33;;;;;;;49.93;18.80;;;;;;;;;;5053010;28;20622;-74
2024/01/11 00:32:58;;;;;;;51.60;17.17;;;;;;;;;;5042991;28;20613;-75
2024/01/11 00:35:24;;;;;;;49.97;18.80;;;;;;;;;;5052023;28;20266;-74
2024/01/11 00:37:49;;;;;;;52.07;18.17;;;;;;;;;;5052020;28;20308;-74
2024/01/11 00:40:14;;;;;;;47.87;17.03;;;;;;;;;;5051565;28;20633;-74
2024/01/11 00:42:40;;;;;;;38.67;14.63;;;;;;;;;;5036154;28;20366;-74
2024/01/11 00:45:05;;;;;;;39.23;15.17;;;;;;;;;;5050871;28;20348;-74
2024/01/11 00:47:31;;;;;;;40.53;14.10;;;;;;;;;;5051897;28;20237;-74
2024/01/11 00:49:56;;;;;;;39.73;14.47;;;;;;;;;;5049437;28;20275;-75
2024/01/11 00:52:22;;;;;;;39.80;14.60;;;;;;;;;;5051612;28;20295;-75
2024/01/11 00:54:47;;;;;;;39.97;14.80;;;;;;;;;;5037931;28;20240;-74
2024/01/11 00:57:12;;;;;;;39.00;14.47;;;;;;;;;;5051759;28;20221;-74
2024/01/11 00:59:39;;;;;;;38.30;14.37;;;;;;;;;;5050664;28;20333;-75
2024/01/11 01:02:05;;;;;;;42.27;14.43;;;;;;;;;;5037546;28;20232;-76
2024/01/11 01:04:30;;;;;;;40.40;15.27;;;;;;;;;;5060459;28;20225;-74
2024/01/11 01:06:56;;;;;;;44.10;15.47;;;;;;;;;;5046093;28;20324;-75
2024/01/11 01:09:21;;;;;;;41.33;15.50;;;;;;;;;;5051063;28;20239;-76
2024/01/11 01:11:46;;;;;;;42.03;15.40;;;;;;;;;;5052717;28;20228;-75
2024/01/11 01:14:12;;;;;;;40.37;15.63;;;;;;;;;;5048931;28;20308;-75
2024/01/11 01:16:37;;;;;;;42.93;15.60;;;;;;;;;;5049898;28;20229;-75
2024/01/11 01:19:02;;;;;;;47.83;17.30;;;;;;;;;;5049927;28;20781;-74
2024/01/11 01:21:28;;;;;;;51.53;17.30;;;;;;;;;;5052300;28;20247;-75
2024/01/11 01:23:53;;;;;;;51.23;18.93;;;;;;;;;;5034338;28;20233;-75
2024/01/11 01:26:19;;;;;;;51.50;19.03;;;;;;;;;;5049269;28;20291;-75
2024/01/11 01:28:45;;;;;;;50.83;18.43;;;;;;;;;;5033062;28;20302;-75
2024/01/11 01:31:10;;;;;;;46.77;17.60;;;;;;;;;;5051365;28;20225;-75
2024/01/11 01:33:36;;;;;;;42.57;15.67;;;;;;;;;;5054503;28;20229;-76
2024/01/11 01:36:01;;;;;;;47.87;15.47;;;;;;;;;;5053274;28;20281;-75
2024/01/11 01:38:26;;;;;;;45.07;15.90;;;;;;;;;;5042929;28;20235;-74
2024/01/11 01:40:52;;;;;;;42.73;14.93;;;;;;;;;;5063494;28;20229;-75
2024/01/11 01:43:17;;;;;;;43.50;15.63;;;;;;;;;;5047839;28;20224;-75
2024/01/11 01:45:42;;;;;;;43.30;16.20;;;;;;;;;;5037609;28;20224;-74
2024/01/11 01:48:10;;;;;;;41.27;15.23;;;;;;;;;;5038257;28;20663;-72
2024/01/11 01:50:35;;;;;;;45.23;16.57;;;;;;;;;;5045193;28;20729;-72
2024/01/11 01:53:01;;;;;;;49.17;17.40;;;;;;;;;;5059915;28;20244;-73
2024/01/11 01:55:26;;;;;;;49.60;16.63;;;;;;;;;;5052070;28;20229;-73
2024/01/11 01:57:52;;;;;;;45.43;16.97;;;;;;;;;;5052577;28;20238;-73
2024/01/11 02:00:17;;;;;;;53.00;16.73;;;;;;;;;;5040096;28;20860;-73
2024/01/11 02:02:43;;;;;;;46.00;16.80;;;;;;;;;;5056479;28;20344;-74
2024/01/11 02:05:09;;;;;;;46.03;16.30;;;;;;;;;;5056827;28;20221;-73
2024/01/11 02:07:34;;;;;;;46.43;16.27;;;;;;;;;;5039171;28;20823;-73
2024/01/11 02:09:59;;;;;;;43.00;15.70;;;;;;;;;;5048180;28;20233;-73
2024/01/11 02:12:25;;;;;;;41.70;15.63;;;;;;;;;;5036170;28;20224;-73
2024/01/11 02:14:53;;;;;;;35.17;12.90;;;;;;;;;;5046587;28;20236;-72
2024/01/11 02:17:19;;;;;;;30.40;10.70;;;;;;;;;;5053976;28;20225;-72
2024/01/11 02:19:44;;;;;;;28.07;10.00;;;;;;;;;;5046410;28;20240;-72
2024/01/11 02:22:13;;;;;;;26.50;10.03;;;;;;;;;;5054651;28;20224;-73
2024/01/11 02:24:38;;;;;;;24.60;9.43;;;;;;;;;;5052910;28;20228;-73
2024/01/11 02:27:04;;;;;;;26.90;9.73;;;;;;;;;;5052490;28;20233;-73
2024/01/11 02:29:30;;;;;;;27.67;10.37;;;;;;;;;;5056861;28;20225;-74
2024/01/11 02:31:55;;;;;;;30.17;10.27;;;;;;;;;;5041040;28;20255;-73
2024/01/11 02:34:21;;;;;;;30.07;10.23;;;;;;;;;;5062419;28;20229;-73
2024/01/11 02:36:46;;;;;;;29.57;10.43;;;;;;;;;;5054208;28;20252;-74
2024/01/11 02:39:12;;;;;;;32.60;10.90;;;;;;;;;;5038060;28;20236;-74
2024/01/11 02:41:37;;;;;;;29.27;11.47;;;;;;;;;;5060855;28;20236;-72
2024/01/11 02:44:02;;;;;;;36.10;11.47;;;;;;;;;;5054658;28;20225;-74
2024/01/11 02:46:28;;;;;;;32.67;11.40;;;;;;;;;;5051898;28;20232;-73
2024/01/11 02:48:53;;;;;;;33.77;11.60;;;;;;;;;;5037453;28;20307;-73
2024/01/11 02:51:18;;;;;;;33.23;11.23;;;;;;;;;;5052062;28;20603;-72
2024/01/11 02:53:44;;;;;;;33.60;11.17;;;;;;;;;;5054648;28;20294;-73
2024/01/11 02:56:09;;;;;;;32.77;11.63;;;;;;;;;;5055549;28;20236;-73
2024/01/11 02:58:34;;;;;;;32.87;11.83;;;;;;;;;;5050622;28;20730;-73
2024/01/11 03:01:00;;;;;;;35.40;12.70;;;;;;;;;;5042449;28;20247;-74
2024/01/11 03:03:25;;;;;;;31.47;12.27;;;;;;;;;;5055900;28;20548;-76
2024/01/11 03:05:50;;;;;;;36.33;12.73;;;;;;;;;;5053139;28;21019;-75
2024/01/11 03:08:16;;;;;;;33.90;12.73;;;;;;;;;;5050522;28;20639;-75
2024/01/11 03:10:41;;;;;;;32.90;13.40;;;;;;;;;;5032997;28;20225;-76
2024/01/11 03:13:07;;;;;;;38.73;14.23;;;;;;;;;;5036705;28;20229;-73
2024/01/11 03:15:32;;;;;;;38.27;13.70;;;;;;;;;;5041010;28;20316;-74
2024/01/11 03:18:00;;;;;;;36.10;13.80;;;;;;;;;;5041507;28;20224;-75
2024/01/11 03:20:25;;;;;;;40.20;14.33;;;;;;;;;;5053379;28;20702;-75
2024/01/11 03:22:52;;;;;;;44.37;15.17;;;;;;;;;;5046505;28;21100;-74
2024/01/11 03:25:17;;;;;;;42.13;15.73;;;;;;;;;;5039114;28;20695;-75
2024/01/11 03:27:43;;;;;;;41.37;15.33;;;;;;;;;;5053559;28;20237;-76
2024/01/11 03:30:08;;;;;;;47.00;14.90;;;;;;;;;;5033530;28;20787;-75
2024/01/11 03:32:34;;;;;;;44.70;16.37;;;;;;;;;;5053215;28;20756;-75
2024/01/11 03:34:59;;;;;;;52.40;16.90;;;;;;;;;;5037081;28;20665;-75
2024/01/11 03:37:24;;;;;;;44.30;16.90;;;;;;;;;;5039615;28;20225;-75
2024/01/11 03:39:50;;;;;;;51.37;16.23;;;;;;;;;;5036036;28;20689;-75
2024/01/11 03:42:15;;;;;;;50.33;17.00;;;;;;;;;;5054018;28;20225;-75
2024/01/11 03:44:40;;;;;;;42.53;16.47;;;;;;;;;;5035999;28;20260;-75
2024/01/11 03:47:06;;;;;;;47.27;16.60;;;;;;;;;;5054831;28;20228;-76
2024/01/11 03:49:31;;;;;;;45.07;16.63;;;;;;;;;;5051987;28;20788;-76
2024/01/11 03:51:57;;;;;;;46.60;16.47;;;;;;;;;;5049440;28;20293;-73
2024/01/11 03:54:22;;;;;;;45.43;17.03;;;;;;;;;;5039750;28;20307;-73
2024/01/11 03:56:48;;;;;;;49.57;17.73;;;;;;;;;;5052541;28;20225;-73
2024/01/11 03:59:14;;;;;;;51.90;17.33;;;;;;;;;;5055533;28;20308;-72
2024/01/11 04:01:40;;;;;;;48.07;17.33;;;;;;;;;;5049434;28;20236;-73
2024/01/11 04:04:05;;;;;;;50.37;17.20;;;;;;;;;;5039913;28;20316;-73
2024/01/11 04:06:31;;;;;;;48.87;18.43;;;;;;;;;;5050799;28;20345;-73
2024/01/11 04:08:56;;;;;;;56.20;18.37;;;;;;;;;;5032872;28;20229;-72
2024/01/11 04:11:22;;;;;;;56.27;18.53;;;;;;;;;;5034037;28;20245;-72
2024/01/11 04:13:47;;;;;;;58.07;18.53;;;;;;;;;;5047727;28;20335;-74
2024/01/11 04:16:12;;;;;;;52.53;18.57;;;;;;;;;;5055232;28;20251;-76
2024/01/11 04:18:38;;;;;;;51.17;18.33;;;;;;;;;;5052014;28;20251;-76
2024/01/11 04:21:03;;;;;;;49.53;17.07;;;;;;;;;;5050722;28;20226;-75
2024/01/11 04:23:29;;;;;;;53.20;18.07;;;;;;;;;;5044334;28;20221;-75
2024/01/11 04:25:55;;;;;;;52.37;17.80;;;;;;;;;;5049019;28;20232;-74
2024/01/11 04:28:20;;;;;;;50.43;17.70;;;;;;;;;;5054654;28;20237;-75
2024/01/11 04:30:45;;;;;;;49.93;17.13;;;;;;;;;;5048270;28;20220;-75
2024/01/11 04:33:11;;;;;;;53.13;17.60;;;;;;;;;;5054308;28;20225;-75
2024/01/11 04:35:36;;;;;;;46.50;17.80;;;;;;;;;;5023409;28;20238;-73
2024/01/11 04:38:01;;;;;;;46.50;17.67;;;;;;;;;;5050491;28;20233;-71
2024/01/11 04:40:27;;;;;;;49.30;17.03;;;;;;;;;;5050301;28;20274;-73
2024/01/11 04:42:52;;;;;;;55.43;18.67;;;;;;;;;;5035871;28;20235;-73
2024/01/11 04:45:17;;;;;;;50.40;18.40;;;;;;;;;;5034655;28;20275;-73
2024/01/11 04:47:43;;;;;;;53.53;19.20;;;;;;;;;;5041515;28;20341;-74
2024/01/11 04:50:08;;;;;;;49.37;18.80;;;;;;;;;;5054738;28;20237;-73
2024/01/11 04:52:34;;;;;;;58.80;19.53;;;;;;;;;;5044397;28;20229;-73
2024/01/11 04:54:59;;;;;;;51.80;18.80;;;;;;;;;;5052304;28;20227;-72
2024/01/11 04:57:24;;;;;;;51.33;18.90;;;;;;;;;;5057585;28;20229;-73
2024/01/11 04:59:50;;;;;;;58.40;20.23;;;;;;;;;;5051861;28;21366;-73
2024/01/11 05:02:15;;;;;;;54.00;19.07;;;;;;;;;;5035258;28;20221;-73
2024/01/11 05:04:40;;;;;;;60.20;20.83;;;;;;;;;;5048324;28;20280;-73
2024/01/11 05:07:06;;;;;;;61.27;21.67;;;;;;;;;;5036263;28;20241;-72
2024/01/11 05:09:31;;;;;;;72.43;21.90;;;;;;;;;;5050762;28;20352;-73
2024/01/11 05:11:56;;;;;;;62.70;22.33;;;;;;;;;;5048228;28;20690;-73
2024/01/11 05:14:22;;;;;;;71.17;24.03;;;;;;;;;;5043066;28;20248;-72
2024/01/11 05:16:47;;;;;;;68.47;23.87;;;;;;;;;;5058506;28;20923;-72
2024/01/11 05:19:12;;;;;;;72.07;24.77;;;;;;;;;;5052223;28;20616;-72
2024/01/11 05:21:38;;;;;;;73.77;25.07;;;;;;;;;;5051793;28;20659;-73
2024/01/11 05:24:03;;;;;;;74.93;26.23;;;;;;;;;;5053507;28;20229;-72
2024/01/11 05:26:29;;;;;;;79.33;26.30;;;;;;;;;;5036183;28;20274;-72
2024/01/11 05:28:54;;;;;;;80.10;26.60;;;;;;;;;;5039041;28;20790;-73
2024/01/11 05:31:19;;;;;;;86.63;27.50;;;;;;;;;;5047154;28;20212;-73
2024/01/11 05:33:45;;;;;;;86.17;25.90;;;;;;;;;;5050420;28;20278;-72
2024/01/11 05:36:11;;;;;;;78.70;27.97;;;;;;;;;;5050580;28;20245;-72
2024/01/11 05:38:38;;;;;;;89.10;27.30;;;;;;;;;;5038827;28;20247;-72
2024/01/11 05:41:03;;;;;;;80.40;27.00;;;;;;;;;;5036291;28;20370;-72
2024/01/11 05:43:28;;;;;;;88.20;28.87;;;;;;;;;;5049993;28;20271;-72
2024/01/11 05:45:54;;;;;;;77.63;27.53;;;;;;;;;;5059495;28;20800;-72
2024/01/11 05:48:19;;;;;;;78.67;28.13;;;;;;;;;;5050348;28;20685;-72
2024/01/11 05:50:44;;;;;;;78.67;27.70;;;;;;;;;;5048929;28;20236;-73
2024/01/11 05:53:10;;;;;;;81.77;29.73;;;;;;;;;;5035375;28;20225;-75
2024/01/11 05:55:36;;;;;;;83.40;28.57;;;;;;;;;;5048127;28;20214;-74
2024/01/11 05:58:01;;;;;;;79.07;28.53;;;;;;;;;;5051487;28;20240;-75
2024/01/11 06:00:26;;;;;;;74.83;26.43;;;;;;;;;;5037454;28;20221;-75
2024/01/11 06:02:52;;;;;;;74.40;26.93;;;;;;;;;;5032991;28;20221;-74
2024/01/11 06:05:17;;;;;;;71.00;25.33;;;;;;;;;;5052187;28;20278;-75
2024/01/11 06:07:43;;;;;;;71.00;25.83;;;;;;;;;;5036272;28;20240;-77
2024/01/11 06:10:08;;;;;;;74.17;26.50;;;;;;;;;;5054663;28;20355;-76
2024/01/11 06:12:34;;;;;;;71.73;25.67;;;;;;;;;;5050906;28;20316;-76
2024/01/11 06:15:00;;;;;;;75.33;26.20;;;;;;;;;;5037892;28;20283;-76
2024/01/11 06:17:25;;;;;;;80.00;27.23;;;;;;;;;;5047256;28;20308;-76
2024/01/11 06:19:51;;;;;;;82.07;28.10;;;;;;;;;;5033626;28;20304;-75
2024/01/11 06:22:16;;;;;;;74.13;26.67;;;;;;;;;;5048206;28;20239;-75
2024/01/11 06:24:42;;;;;;;77.90;26.97;;;;;;;;;;5054683;28;20232;-75
2024/01/11 06:27:07;;;;;;;72.80;26.33;;;;;;;;;;5038550;28;20225;-76
2024/01/11 06:29:32;;;;;;;79.73;26.63;;;;;;;;;;5042973;28;20244;-76
2024/01/11 06:31:58;;;;;;;75.53;27.20;;;;;;;;;;5057366;28;20229;-74
2024/01/11 06:34:23;;;;;;;75.87;25.97;;;;;;;;;;5052397;28;20221;-75
2024/01/11 06:36:49;;;;;;;74.93;25.70;;;;;;;;;;5042234;28;20821;-75
2024/01/11 06:39:14;;;;;;;77.27;25.73;;;;;;;;;;5053261;28;21075;-74
2024/01/11 06:41:39;;;;;;;73.80;25.73;;;;;;;;;;5041520;28;20257;-74
2024/01/11 06:44:05;;;;;;;68.40;25.17;;;;;;;;;;5051289;28;20264;-75
2024/01/11 06:46:30;;;;;;;67.87;26.73;;;;;;;;;;5038792;28;20617;-72
2024/01/11 06:48:56;;;;;;;70.67;25.60;;;;;;;;;;5059237;28;20298;-74
2024/01/11 06:51:21;;;;;;;73.53;25.13;;;;;;;;;;5037196;28;20268;-73
2024/01/11 06:53:47;;;;;;;79.90;26.27;;;;;;;;;;5052713;28;20239;-72
2024/01/11 06:56:13;;;;;;;71.83;25.67;;;;;;;;;;5036381;28;20707;-74
2024/01/11 06:58:39;;;;;;;71.10;26.17;;;;;;;;;;5039639;28;20233;-73
2024/01/11 07:01:04;;;;;;;71.30;25.57;;;;;;;;;;5051524;28;20223;-73
2024/01/11 07:03:30;;;;;;;68.70;25.87;;;;;;;;;;5040971;28;20249;-73
2024/01/11 07:05:55;;;;;;;72.60;25.80;;;;;;;;;;5038928;28;20783;-73
2024/01/11 07:08:21;;;;;;;71.60;24.97;;;;;;;;;;5035615;28;20287;-73
2024/01/11 07:10:46;;;;;;;67.80;24.33;;;;;;;;;;5054011;28;20893;-73
2024/01/11 07:13:14;;;;;;;61.50;24.17;;;;;;;;;;5045141;28;20225;-73
2024/01/11 07:15:40;;;;;;;67.20;23.67;;;;;;;;;;5052048;28;20221;-74
2024/01/11 07:18:05;;;;;;;71.00;24.57;;;;;;;;;;5061276;28;20232;-73
2024/01/11 07:20:31;;;;;;;65.03;23.60;;;;;;;;;;5038508;28;20231;-73
2024/01/11 07:22:56;;;;;;;74.97;25.77;;;;;;;;;;5035084;28;20718;-74
2024/01/11 07:25:21;;;;;;;74.57;25.90;;;;;;;;;;5055127;28;20420;-74
2024/01/11 07:27:47;;;;;;;68.83;25.63;;;;;;;;;;5034732;28;20226;-73
2024/01/11 07:30:12;;;;;;;74.50;26.63;;;;;;;;;;5050596;28;20746;-74
2024/01/11 07:32:37;;;;;;;75.13;26.77;;;;;;;;;;5039342;28;20213;-74
2024/01/11 07:35:03;;;;;;;79.57;28.03;;;;;;;;;;5051269;28;20267;-75
2024/01/11 07:37:28;;;;;;;69.57;26.57;;;;;;;;;;5039157;28;20721;-74
2024/01/11 07:39:54;;;;;;;69.53;23.77;;;;;;;;;;5034291;28;20248;-74
2024/01/11 07:42:19;;;;;;;76.47;25.93;;;;;;;;;;5053688;28;20229;-73
2024/01/11 07:44:44;;;;;;;66.93;26.80;;;;;;;;;;5037981;28;20690;-75
2024/01/11 07:47:10;;;;;;;56.20;22.80;;;;;;;;;;5057403;28;20259;-73
2024/01/11 07:49:35;;;;;;;73.23;26.90;;;;;;;;;;5039967;28;20770;-72
2024/01/11 07:52:00;;;;;;;70.47;25.73;;;;;;;;;;5055360;28;20229;-73
2024/01/11 07:54:26;;;;;;;61.50;22.83;;;;;;;;;;5038165;28;20699;-73
2024/01/11 07:56:51;;;;;;;65.93;23.57;;;;;;;;;;5039131;28;20233;-72
2024/01/11 07:59:17;;;;;;;71.30;26.70;;;;;;;;;;5052845;28;20862;-73
2024/01/11 08:01:42;;;;;;;81.03;30.80;;;;;;;;;;5050271;28;20217;-73
2024/01/11 08:04:07;;;;;;;82.67;30.70;;;;;;;;;;5052244;28;20666;-72
2024/01/11 08:06:33;;;;;;;82.10;31.63;;;;;;;;;;5052415;28;20260;-73
2024/01/11 08:08:59;;;;;;;78.60;29.57;;;;;;;;;;5051588;28;20253;-74
2024/01/11 08:11:24;;;;;;;71.47;28.03;;;;;;;;;;5053315;28;20253;-73
2024/01/11 08:13:49;;;;;;;76.90;27.63;;;;;;;;;;5038540;28;20698;-74
2024/01/11 08:16:16;;;;;;;72.33;25.43;;;;;;;;;;5039260;28;20932;-73
2024/01/11 08:18:41;;;;;;;73.53;26.90;;;;;;;;;;5036013;28;20615;-73
2024/01/11 08:21:09;;;;;;;64.80;26.27;;;;;;;;;;5056209;28;20229;-75
2024/01/11 08:23:34;;;;;;;69.20;26.57;;;;;;;;;;5034866;28;20232;-73
2024/01/11 08:26:00;;;;;;;75.27;29.27;;;;;;;;;;5051513;28;20304;-72
2024/01/11 08:28:25;;;;;;;74.97;28.03;;;;;;;;;;5048315;28;20233;-73
2024/01/11 08:30:50;;;;;;;76.93;28.70;;;;;;;;;;5051587;28;20228;-72
2024/01/11 08:33:16;;;;;;;74.10;27.93;;;;;;;;;;5056336;28;20655;-72
2024/01/11 08:35:42;;;;;;;82.07;29.17;;;;;;;;;;5047319;28;20644;-74
2024/01/11 08:38:07;;;;;;;82.27;29.90;;;;;;;;;;5033348;28;20822;-72
2024/01/11 08:40:33;;;;;;;75.57;28.63;;;;;;;;;;5052603;28;20247;-73
2024/01/11 08:42:58;;;;;;;83.33;31.17;;;;;;;;;;5039964;28;20239;-72
2024/01/11 08:45:23;;;;;;;77.10;29.87;;;;;;;;;;5037966;28;20286;-73
2024/01/11 08:47:49;;;;;;;73.90;29.63;;;;;;;;;;5034839;28;20252;-73
2024/01/11 08:50:14;;;;;;;67.73;29.07;;;;;;;;;;5051530;28;20225;-73
2024/01/11 08:52:40;;;;;;;80.07;30.73;;;;;;;;;;5034459;28;20221;-74
2024/01/11 08:55:05;;;;;;;82.77;29.67;;;;;;;;;;5035728;28;20228;-72
2024/01/11 08:57:31;;;;;;;81.10;29.30;;;;;;;;;;5055008;28;20219;-74
2024/01/11 08:59:56;;;;;;;73.80;28.40;;;;;;;;;;5037350;28;20220;-73
2024/01/11 09:02:22;;;;;;;70.43;28.23;;;;;;;;;;5052122;28;20229;-72
2024/01/11 09:04:48;;;;;;;69.13;27.73;;;;;;;;;;5049247;28;20644;-73
2024/01/11 09:07:16;;;;;;;76.50;28.33;;;;;;;;;;5048286;28;20291;-73
2024/01/11 09:09:41;;;;;;;77.53;28.47;;;;;;;;;;5043314;28;20736;-76
2024/01/11 09:12:06;;;;;;;67.53;26.97;;;;;;;;;;5048213;28;20222;-76
2024/01/11 09:14:32;;;;;;;65.30;25.70;;;;;;;;;;5045687;28;20657;-75
2024/01/11 09:16:57;;;;;;;71.10;27.17;;;;;;;;;;5048502;28;20225;-75
2024/01/11 09:19:23;;;;;;;64.27;26.77;;;;;;;;;;5043827;28;20236;-76
2024/01/11 09:21:48;;;;;;;66.57;27.27;;;;;;;;;;5055379;28;20221;-76
2024/01/11 09:24:14;;;;;;;63.70;26.73;;;;;;;;;;5050210;28;20320;-76
2024/01/11 09:26:39;;;;;;;62.40;25.73;;;;;;;;;;5033810;28;20311;-76
2024/01/11 09:29:04;;;;;;;60.97;24.73;;;;;;;;;;5053193;28;20267;-76
2024/01/11 09:31:30;;;;;;;60.40;24.40;;;;;;;;;;5052864;28;20308;-75
2024/01/11 09:33:57;;;;;;;64.13;24.43;;;;;;;;;;5050865;28;20255;-76
2024/01/11 09:36:22;;;;;;;63.57;24.27;;;;;;;;;;5050574;28;20715;-76
2024/01/11 09:38:48;;;;;;;59.47;25.07;;;;;;;;;;5049427;28;20722;-75
2024/01/11 09:41:13;;;;;;;61.33;23.60;;;;;;;;;;5052159;28;20663;-76
2024/01/11 09:43:40;;;;;;;61.40;25.10;;;;;;;;;;5051128;28;20748;-76
2024/01/11 09:46:06;;;;;;;62.23;25.10;;;;;;;;;;5036578;28;20233;-77
2024/01/11 09:48:34;;;;;;;64.33;25.57;;;;;;;;;;5036494;28;20714;-75
2024/01/11 09:51:01;;;;;;;59.40;24.93;;;;;;;;;;5051454;28;20228;-76
2024/01/11 09:53:26;;;;;;;62.30;25.43;;;;;;;;;;5040103;28;20235;-76
2024/01/11 09:55:52;;;;;;;57.80;24.23;;;;;;;;;;5050961;28;20229;-74
2024/01/11 09:58:18;;;;;;;64.20;25.87;;;;;;;;;;5047018;28;20315;-75
2024/01/11 10:00:43;;;;;;;66.87;26.07;;;;;;;;;;5046663;28;20370;-77
2024/01/11 10:03:09;;;;;;;65.97;25.80;;;;;;;;;;5062814;28;20248;-76
2024/01/11 10:05:34;;;;;;;65.63;25.60;;;;;;;;;;5047772;28;20223;-76
2024/01/11 10:08:00;;;;;;;66.33;27.03;;;;;;;;;;5063707;28;20290;-76
2024/01/11 10:10:28;;;;;;;63.57;26.80;;;;;;;;;;5056253;28;20232;-76
2024/01/11 10:12:53;;;;;;;70.03;27.40;;;;;;;;;;5053636;28;20324;-76
2024/01/11 10:15:19;;;;;;;65.67;26.93;;;;;;;;;;5039251;28;20438;-75
2024/01/11 10:17:44;;;;;;;68.87;26.77;;;;;;;;;;5055108;28;20224;-75
2024/01/11 10:20:16;;;;;;;66.60;26.57;;;;;;;;;;5045035;28;20221;-72
2024/01/11 10:22:42;;;;;;;74.70;27.83;;;;;;;;;;5046173;28;20239;-74
2024/01/11 10:25:08;;;;;;;68.70;26.73;;;;;;;;;;5045421;28;20624;-73
2024/01/11 10:27:33;;;;;;;67.30;26.23;;;;;;;;;;5055868;28;20228;-73
2024/01/11 10:29:58;;;;;;;60.67;24.93;;;;;;;;;;5037995;28;20322;-72
2024/01/11 10:32:26;;;;;;;64.80;24.73;;;;;;;;;;5054588;28;20232;-73
2024/01/11 10:34:51;;;;;;;62.57;24.10;;;;;;;;;;5043151;28;20242;-73
2024/01/11 10:37:18;;;;;;;60.67;25.40;;;;;;;;;;5053845;28;20229;-74
2024/01/11 10:39:43;;;;;;;69.67;26.83;;;;;;;;;;5041872;28;20277;-73
2024/01/11 10:42:09;;;;;;;69.60;26.20;;;;;;;;;;5041402;28;20304;-76
2024/01/11 10:44:35;;;;;;;73.87;29.63;;;;;;;;;;5053690;28;20953;-76
2024/01/11 10:47:02;;;;;;;77.27;30.20;;;;;;;;;;5054926;28;20228;-76
2024/01/11 10:49:27;;;;;;;76.07;30.30;;;;;;;;;;5051580;28;20245;-75
2024/01/11 10:51:59;;;;;;;75.30;29.17;;;;;;;;;;5063198;28;20242;-76
2024/01/11 10:54:24;;;;;;;76.53;29.70;;;;;;;;;;5043755;28;20322;-77
2024/01/11 10:56:49;;;;;;;73.07;28.77;;;;;;;;;;5050732;28;20287;-74
2024/01/11 10:59:15;;;;;;;67.60;26.77;;;;;;;;;;5037679;28;20227;-76
2024/01/11 11:01:40;;;;;;;72.80;28.43;;;;;;;;;;5052566;28;20225;-76
2024/01/11 11:04:07;;;;;;;65.87;27.77;;;;;;;;;;5045716;28;20776;-76
2024/01/11 11:06:33;;;;;;;64.40;26.20;;;;;;;;;;5043425;28;21135;-76
2024/01/11 11:08:58;;;;;;;67.47;27.17;;;;;;;;;;5042299;28;20266;-77
2024/01/11 11:11:23;;;;;;;70.67;29.17;;;;;;;;;;5050267;28;20274;-77
2024/01/11 11:13:49;;;;;;;70.63;27.57;;;;;;;;;;5040613;28;20320;-77
2024/01/11 11:16:15;;;;;;;67.20;27.27;;;;;;;;;;5042792;28;21016;-77
2024/01/11 11:18:40;;;;;;;64.20;26.93;;;;;;;;;;5044281;28;20792;-77
2024/01/11 11:21:10;;;;;;;56.67;22.30;;;;;;;;;;5045336;28;20221;-77
2024/01/11 11:23:35;;;;;;;58.17;24.23;;;;;;;;;;5044615;28;20917;-78
2024/01/11 11:26:01;;;;;;;82.57;32.37;;;;;;;;;;5051086;28;20233;-79
2024/01/11 11:28:26;;;;;;;79.17;31.57;;;;;;;;;;5057764;28;20225;-76
2024/01/11 11:30:52;;;;;;;74.00;31.07;;;;;;;;;;5045505;28;20244;-78
2024/01/11 11:33:17;;;;;;;72.00;30.63;;;;;;;;;;5044926;28;20233;-78
2024/01/11 11:35:43;;;;;;;76.50;29.63;;;;;;;;;;5055944;28;20233;-78
2024/01/11 11:38:08;;;;;;;68.87;27.30;;;;;;;;;;5037394;28;20583;-79
2024/01/11 11:40:38;;;;;;;61.20;25.37;;;;;;;;;;5036272;28;20673;-78
2024/01/11 11:43:04;;;;;;;52.80;21.27;;;;;;;;;;5037745;28;20237;-79
2024/01/11 11:45:30;;;;;;;59.97;23.57;;;;;;;;;;5045242;28;20221;-76
2024/01/11 11:47:55;;;;;;;70.87;26.60;;;;;;;;;;5054903;28;20336;-76
2024/01/11 11:50:24;;;;;;;66.87;27.30;;;;;;;;;;5052212;28;20241;-77
2024/01/11 11:52:56;;;;;;;66.40;26.73;;;;;;;;;;5050698;28;20785;-77
2024/01/11 11:55:25;;;;;;;62.47;25.80;;;;;;;;;;5039807;28;20237;-77
2024/01/11 11:57:51;;;;;;;62.07;25.90;;;;;;;;;;5035948;28;20312;-77
2024/01/11 12:00:17;;;;;;;28.00;12.13;;;;;;;;;;5044953;28;20227;-78
2024/01/11 12:02:42;;;;;;;27.27;11.97;;;;;;;;;;5060589;28;20633;-77
2024/01/11 12:05:08;;;;;;;24.63;11.27;;;;;;;;;;5056885;28;20252;-77
2024/01/11 12:07:33;;;;;;;25.83;11.03;;;;;;;;;;5052656;28;20360;-77
2024/01/11 12:09:58;;;;;;;27.50;11.23;;;;;;;;;;5037256;28;20260;-76
2024/01/11 12:12:24;;;;;;;25.13;11.33;;;;;;;;;;5049902;28;20274;-76
2024/01/11 12:14:49;;;;;;;24.30;11.63;;;;;;;;;;5051855;28;20239;-76
2024/01/11 12:17:15;;;;;;;25.43;11.40;;;;;;;;;;5055958;28;20243;-73
2024/01/11 12:19:41;;;;;;;26.27;11.00;;;;;;;;;;5061488;28;20717;-73
2024/01/11 12:22:06;;;;;;;30.57;12.30;;;;;;;;;;5049986;28;20232;-72
2024/01/11 12:24:33;;;;;;;27.43;11.20;;;;;;;;;;5052252;28;20225;-73
2024/01/11 12:26:59;;;;;;;25.63;11.33;;;;;;;;;;5052969;28;20228;-73
2024/01/11 12:29:24;;;;;;;25.83;11.67;;;;;;;;;;5037115;28;20347;-73
2024/01/11 12:31:50;;;;;;;25.30;11.50;;;;;;;;;;5052663;28;20307;-73
2024/01/11 12:34:15;;;;;;;22.30;11.30;;;;;;;;;;5036096;28;20287;-73
2024/01/11 12:36:41;;;;;;;24.43;11.20;;;;;;;;;;5038990;28;21082;-74
2024/01/11 12:39:06;;;;;;;23.90;10.67;;;;;;;;;;5048373;28;20226;-74
2024/01/11 12:41:32;;;;;;;20.77;9.17;;;;;;;;;;5037182;28;20232;-74
2024/01/11 12:43:57;;;;;;;19.93;9.23;;;;;;;;;;5060788;28;20228;-72
2024/01/11 12:46:22;;;;;;;19.60;8.60;;;;;;;;;;5051335;28;20232;-72
2024/01/11 12:48:48;;;;;;;20.03;7.60;;;;;;;;;;5037356;28;20231;-73
2024/01/11 12:51:15;;;;;;;17.93;7.53;;;;;;;;;;5037309;28;20226;-74
2024/01/11 12:53:40;;;;;;;11.53;5.90;;;;;;;;;;5052044;28;20217;-73
2024/01/11 12:56:10;;;;;;;13.37;6.57;;;;;;;;;;5038784;28;20989;-73
2024/01/11 12:58:35;;;;;;;14.17;6.43;;;;;;;;;;5049430;28;20331;-74
2024/01/11 13:01:01;;;;;;;11.87;5.63;;;;;;;;;;5047963;28;20618;-74
2024/01/11 13:03:29;;;;;;;13.53;5.20;;;;;;;;;;5052195;28;20721;-73
2024/01/11 13:05:54;;;;;;;11.90;5.20;;;;;;;;;;5041951;28;20729;-72
2024/01/11 13:08:19;;;;;;;14.97;5.33;;;;;;;;;;5050041;28;20221;-73
2024/01/11 13:10:47;;;;;;;12.03;5.57;;;;;;;;;;5046458;28;21357;-72
2024/01/11 13:13:12;;;;;;;13.77;5.83;;;;;;;;;;5050220;28;20220;-73
2024/01/11 13:15:38;;;;;;;11.50;5.50;;;;;;;;;;5038313;28;20224;-72
2024/01/11 13:18:04;;;;;;;12.43;5.37;;;;;;;;;;5052082;28;20217;-72
2024/01/11 13:20:29;;;;;;;13.37;5.80;;;;;;;;;;5048530;28;20703;-73
2024/01/11 13:23:13;;;;;;;10.97;5.30;;;;;;;;;;5060295;28;20217;-72
2024/01/11 13:25:40;;;;;;;9.10;4.90;;;;;;;;;;5059991;28;20760;-72
2024/01/11 13:28:06;;;;;;;13.27;4.90;;;;;;;;;;5040917;28;20296;-73
2024/01/11 13:30:31;;;;;;;13.73;5.70;;;;;;;;;;5048921;28;20236;-72
2024/01/11 13:32:57;;;;;;;10.90;4.90;;;;;;;;;;5037429;28;20308;-73
2024/01/11 13:35:22;;;;;;;11.40;5.03;;;;;;;;;;5039667;28;20316;-72
2024/01/11 13:37:48;;;;;;;9.17;4.87;;;;;;;;;;5060637;28;20249;-73
2024/01/11 13:40:13;;;;;;;11.00;5.33;;;;;;;;;;5038361;28;20233;-74
2024/01/11 13:42:39;;;;;;;14.70;5.20;;;;;;;;;;5036366;28;20668;-73
2024/01/11 13:45:07;;;;;;;9.47;5.00;;;;;;;;;;5048922;28;20319;-72
2024/01/11 13:47:32;;;;;;;9.20;5.10;;;;;;;;;;5048853;28;20762;-72
2024/01/11 13:49:57;;;;;;;9.73;4.60;;;;;;;;;;5049639;28;20236;-73
2024/01/11 13:52:23;;;;;;;9.40;4.80;;;;;;;;;;5048642;28;20381;-74
2024/01/11 13:54:48;;;;;;;9.63;4.80;;;;;;;;;;5050462;28;20229;-72
2024/01/11 13:57:14;;;;;;;8.70;4.70;;;;;;;;;;5048106;28;20244;-73
2024/01/11 13:59:39;;;;;;;9.97;4.70;;;;;;;;;;5034306;28;20355;-74
2024/01/11 14:02:04;;;;;;;10.47;5.10;;;;;;;;;;5056981;28;20226;-73
2024/01/11 14:04:30;;;;;;;10.57;5.23;;;;;;;;;;5036967;28;20585;-74
2024/01/11 14:06:55;;;;;;;8.90;4.90;;;;;;;;;;5049761;28;20740;-74
2024/01/11 14:09:22;;;;;;;8.77;4.70;;;;;;;;;;5035955;28;20315;-74